createdAt,value
2018-04-06T00:02:05.747Z,5.45
2018-04-06T00:04:32.016Z,6.60
2018-04-06T00:06:58.998Z,6.22
2018-04-06T00:09:25.267Z,6.57
2018-04-06T00:11:51.502Z,7.25
2018-04-06T00:14:17.742Z,6.07
2018-04-06T00:16:44.728Z,7.05
2018-04-06T00:19:10.963Z,6.25
2018-04-06T00:21:37.211Z,6.80
2018-04-06T00:24:03.476Z,6.18
2018-04-06T00:26:30.454Z,6.85
2018-04-06T00:28:56.716Z,6.85
2018-04-06T00:31:22.960Z,7.15
2018-04-06T00:33:49.199Z,6.87
2018-04-06T00:36:15.431Z,7.05
2018-04-06T00:38:41.683Z,6.57
2018-04-06T00:41:07.950Z,6.47
2018-04-06T00:43:34.228Z,8.65
2018-04-06T00:46:01.208Z,7.30
2018-04-06T00:48:27.481Z,6.80
2018-04-06T00:50:53.786Z,7.20
2018-04-06T00:53:33.083Z,7.07
2018-04-06T00:55:59.347Z,7.07
2018-04-06T00:58:25.572Z,7.10
2018-04-06T01:00:51.822Z,6.85
2018-04-06T01:03:18.064Z,6.87
2018-04-06T01:05:44.343Z,6.70
2018-04-06T01:08:10.580Z,7.90
2018-04-06T01:10:36.807Z,6.53
2018-04-06T01:13:03.071Z,6.07
2018-04-06T01:15:29.303Z,6.95
2018-04-06T01:17:55.551Z,6.40
2018-04-06T01:20:21.802Z,6.25
2018-04-06T01:22:48.064Z,7.00
2018-04-06T01:25:14.293Z,6.03
2018-04-06T01:27:40.559Z,6.50
2018-04-06T01:30:06.820Z,5.78
2018-04-06T01:32:33.797Z,5.20
2018-04-06T01:35:00.083Z,5.85
2018-04-06T01:37:27.073Z,7.75
2018-04-06T01:39:53.363Z,5.85
2018-04-06T01:42:20.335Z,5.53
2018-04-06T01:44:46.599Z,6.40
2018-04-06T01:47:12.836Z,6.10
2018-04-06T01:49:39.842Z,6.18
2018-04-06T01:52:06.088Z,5.72
2018-04-06T01:54:32.327Z,5.35
2018-04-06T01:56:58.599Z,6.18
2018-04-06T01:59:25.571Z,6.12
2018-04-06T02:01:51.816Z,5.15
2018-04-06T02:04:18.067Z,5.70
2018-04-06T02:06:44.316Z,5.80
2018-04-06T02:09:17.542Z,6.22
2018-04-06T02:11:43.811Z,5.85
2018-04-06T02:14:10.043Z,6.10
2018-04-06T02:16:36.358Z,4.93
2018-04-06T02:19:02.651Z,5.55
2018-04-06T02:21:29.632Z,4.90
2018-04-06T02:23:55.895Z,6.28
2018-04-06T02:26:22.141Z,4.85
2018-04-06T02:28:48.507Z,5.97
2018-04-06T02:31:14.741Z,6.05
2018-04-06T02:33:41.007Z,5.90
2018-04-06T02:36:07.248Z,6.12
2018-04-06T02:38:33.480Z,5.70
2018-04-06T02:40:59.756Z,5.30
2018-04-06T02:43:26.015Z,5.40
2018-04-06T02:45:52.267Z,7.07
2018-04-06T02:48:18.509Z,5.20
2018-04-06T02:50:45.542Z,6.30
2018-04-06T02:53:11.796Z,5.05
2018-04-06T02:55:38.808Z,6.22
2018-04-06T02:58:05.060Z,5.22
2018-04-06T03:00:32.067Z,4.70
2018-04-06T03:02:58.344Z,5.10
2018-04-06T03:05:25.332Z,6.05
2018-04-06T03:07:51.599Z,5.10
2018-04-06T03:10:17.852Z,5.12
2018-04-06T03:12:44.839Z,4.15
2018-04-06T03:15:11.107Z,6.50
2018-04-06T03:17:37.359Z,5.70
2018-04-06T03:20:04.362Z,5.00
2018-04-06T03:22:30.630Z,5.87
2018-04-06T03:24:57.673Z,5.70
2018-04-06T03:27:24.651Z,6.28
2018-04-06T03:29:50.907Z,5.25
2018-04-06T03:32:17.883Z,6.00
2018-04-06T03:34:44.148Z,5.37
2018-04-06T03:37:10.406Z,5.00
2018-04-06T03:39:36.648Z,5.80
2018-04-06T03:42:03.656Z,4.35
2018-04-06T03:44:29.907Z,5.40
2018-04-06T03:46:56.151Z,4.82
2018-04-06T03:49:22.401Z,5.47
2018-04-06T03:51:48.958Z,6.43
2018-04-06T03:54:15.947Z,5.00
2018-04-06T03:56:42.183Z,5.10
2018-04-06T03:59:08.467Z,4.75
2018-04-06T04:01:35.451Z,5.75
2018-04-06T04:04:01.699Z,6.87
2018-04-06T04:06:27.940Z,6.75
2018-04-06T04:08:54.212Z,5.65
2018-04-06T04:11:20.447Z,4.72
2018-04-06T04:13:46.698Z,5.47
2018-04-06T04:16:12.999Z,7.72
2018-04-06T04:18:39.237Z,5.40
2018-04-06T04:21:05.494Z,4.90
2018-04-06T04:23:31.738Z,6.47
2018-04-06T04:25:58.020Z,5.53
2018-04-06T04:28:24.255Z,5.80
2018-04-06T04:30:50.498Z,6.45
2018-04-06T04:33:16.764Z,5.10
2018-04-06T04:35:42.999Z,7.15
2018-04-06T04:38:10.013Z,7.85
2018-04-06T04:40:36.275Z,6.85
2018-04-06T04:43:02.532Z,6.45
2018-04-06T04:45:29.528Z,7.05
2018-04-06T04:47:55.776Z,8.75
2018-04-06T04:50:22.056Z,7.37
2018-04-06T04:52:48.287Z,6.68
2018-04-06T04:55:14.617Z,7.22
2018-04-06T04:57:40.859Z,6.35
2018-04-06T05:00:07.126Z,6.60
2018-04-06T05:02:33.420Z,6.78
2018-04-06T05:04:59.671Z,7.28
2018-04-06T05:07:25.920Z,6.28
2018-04-06T05:09:52.148Z,7.03
2018-04-06T05:12:18.403Z,5.32
2018-04-06T05:14:45.405Z,8.15
2018-04-06T05:17:11.679Z,5.93
2018-04-06T05:19:38.659Z,5.65
2018-04-06T05:22:04.912Z,6.97
2018-04-06T05:24:31.197Z,7.28
2018-04-06T05:26:58.168Z,7.05
2018-04-06T05:29:24.455Z,7.47
2018-04-06T05:31:51.437Z,7.07
2018-04-06T05:34:17.703Z,8.10
2018-04-06T05:36:43.943Z,8.02
2018-04-06T05:39:10.175Z,7.50
2018-04-06T05:41:36.436Z,7.35
2018-04-06T05:44:02.753Z,9.68
2018-04-06T05:46:29.023Z,7.20
2018-04-06T05:48:55.275Z,8.10
2018-04-06T05:51:21.547Z,7.80
2018-04-06T05:53:48.552Z,7.53
2018-04-06T05:56:14.893Z,7.72
2018-04-06T05:58:41.147Z,8.27
2018-04-06T06:01:07.415Z,8.13
2018-04-06T06:03:33.709Z,7.18
2018-04-06T06:06:00.683Z,6.97
2018-04-06T06:08:26.931Z,8.40
2018-04-06T06:10:53.187Z,9.38
2018-04-06T06:13:19.456Z,6.72
2018-04-06T06:15:45.696Z,6.47
2018-04-06T06:18:11.948Z,7.75
2018-04-06T06:20:38.227Z,7.90
2018-04-06T06:23:04.511Z,7.60
2018-04-06T06:25:30.783Z,7.12
2018-04-06T06:27:57.783Z,8.05
2018-04-06T06:30:24.788Z,6.65
2018-04-06T06:32:51.782Z,8.13
2018-04-06T06:35:18.509Z,7.40
2018-04-06T06:37:44.755Z,6.82
2018-04-06T06:40:11.001Z,7.20
2018-04-06T06:42:37.243Z,7.18
2018-04-06T06:45:04.273Z,6.12
2018-04-06T06:47:30.531Z,7.32
2018-04-06T06:49:57.544Z,6.85
2018-04-06T06:52:23.865Z,7.62
2018-04-06T06:54:50.923Z,6.72
2018-04-06T06:57:17.163Z,7.87
2018-04-06T06:59:43.385Z,9.35
2018-04-06T07:02:09.647Z,7.72
2018-04-06T07:04:36.634Z,6.85
2018-04-06T07:07:02.911Z,7.45
2018-04-06T07:09:29.908Z,8.50
2018-04-06T07:11:56.214Z,6.60
2018-04-06T07:14:22.444Z,7.30
2018-04-06T07:16:48.695Z,7.32
2018-04-06T07:19:14.923Z,7.18
2018-04-06T07:21:41.171Z,8.57
2018-04-06T07:24:07.426Z,7.32
2018-04-06T07:26:33.674Z,7.50
2018-04-06T07:29:00.652Z,8.05
2018-04-06T07:31:26.958Z,7.00
2018-04-06T07:33:53.973Z,7.70
2018-04-06T07:36:20.263Z,6.95
2018-04-06T07:38:46.539Z,7.60
2018-04-06T07:41:13.548Z,6.68
2018-04-06T07:43:39.851Z,6.80
2018-04-06T07:46:06.141Z,5.80
2018-04-06T07:48:32.448Z,5.78
2018-04-06T07:50:58.687Z,6.82
2018-04-06T07:53:24.991Z,5.85
2018-04-06T07:55:51.263Z,6.68
2018-04-06T07:58:18.296Z,6.85
2018-04-06T08:00:44.544Z,6.70
2018-04-06T08:03:10.818Z,5.37
2018-04-06T08:05:37.073Z,5.65
2018-04-06T08:08:03.367Z,6.57
2018-04-06T08:10:29.728Z,6.07
2018-04-06T08:12:55.983Z,5.85
2018-04-06T08:15:22.279Z,5.75
2018-04-06T08:17:48.535Z,6.25
2018-04-06T08:20:14.799Z,6.20
2018-04-06T08:22:41.820Z,4.95
2018-04-06T08:25:08.092Z,5.68
2018-04-06T08:27:34.355Z,6.00
2018-04-06T08:30:00.607Z,6.68
2018-04-06T08:32:26.852Z,5.87
2018-04-06T08:34:53.133Z,5.20
2018-04-06T08:37:19.374Z,5.00
2018-04-06T08:39:45.635Z,5.47
2018-04-06T08:42:11.879Z,4.80
2018-04-06T08:44:38.912Z,4.25
2018-04-06T08:47:05.163Z,5.00
2018-04-06T08:49:31.439Z,4.93
2018-04-06T08:51:57.713Z,4.93
2018-04-06T08:54:24.711Z,4.25
2018-04-06T08:56:50.984Z,5.40
2018-04-06T08:59:17.977Z,5.05
2018-04-06T09:01:44.251Z,4.72
2018-04-06T09:04:11.008Z,5.05
2018-04-06T09:06:38.002Z,3.95
2018-04-06T09:09:05.211Z,4.20
2018-04-06T09:11:32.303Z,4.80
2018-04-06T09:13:58.647Z,4.35
2018-04-06T09:16:24.955Z,3.87
2018-04-06T09:18:51.252Z,4.25
2018-04-06T09:21:17.525Z,4.45
2018-04-06T09:23:43.770Z,3.35
2018-04-06T09:26:10.036Z,4.45
2018-04-06T09:28:37.024Z,3.22
2018-04-06T09:31:03.264Z,3.30
2018-04-06T09:33:29.560Z,3.10
2018-04-06T09:35:55.803Z,2.58
2018-04-06T09:38:22.087Z,3.37
2018-04-06T09:40:49.090Z,3.58
2018-04-06T09:43:15.355Z,2.95
2018-04-06T09:45:41.618Z,2.40
2018-04-06T09:48:07.886Z,2.62
2018-04-06T09:50:34.151Z,2.83
2018-04-06T09:53:00.413Z,2.25
2018-04-06T09:55:26.673Z,2.50
2018-04-06T09:57:52.991Z,3.22
2018-04-06T10:00:26.048Z,2.72
2018-04-06T10:02:52.361Z,1.77
2018-04-06T10:05:19.345Z,3.28
2018-04-06T10:07:45.642Z,2.90
2018-04-06T10:10:12.650Z,2.47
2018-04-06T10:12:38.907Z,3.35
2018-04-06T10:15:05.211Z,2.77
2018-04-06T10:17:31.463Z,3.53
2018-04-06T10:19:57.716Z,2.73
2018-04-06T10:22:23.980Z,3.30
2018-04-06T10:24:50.450Z,2.60
2018-04-06T10:27:16.819Z,3.50
2018-04-06T10:29:43.106Z,3.33
2018-04-06T10:32:09.359Z,2.60
2018-04-06T10:34:36.478Z,3.13
2018-04-06T10:37:03.501Z,2.87
2018-04-06T10:39:29.833Z,2.07
2018-04-06T10:41:56.085Z,3.13
2018-04-06T10:44:22.367Z,3.00
2018-04-06T10:46:48.689Z,3.00
2018-04-06T10:49:14.943Z,3.30
2018-04-06T10:51:41.992Z,2.90
2018-04-06T10:54:08.519Z,2.60
2018-04-06T10:56:34.787Z,3.30
2018-04-06T10:59:01.060Z,2.10
2018-04-06T11:01:27.327Z,2.90
2018-04-06T11:03:53.580Z,2.97
2018-04-06T11:06:19.841Z,3.17
2018-04-06T11:08:46.836Z,2.80
2018-04-06T11:11:13.120Z,3.30
2018-04-06T11:13:39.383Z,2.80
2018-04-06T11:16:05.643Z,2.50
2018-04-06T11:18:31.964Z,2.30
2018-04-06T11:20:58.236Z,2.50
2018-04-06T11:23:25.232Z,3.50
2018-04-06T11:25:52.264Z,3.33
2018-04-06T11:28:18.543Z,2.70
2018-04-06T11:30:44.815Z,3.50
2018-04-06T11:33:11.083Z,3.10
2018-04-06T11:35:37.344Z,2.70
2018-04-06T11:38:03.600Z,2.80
2018-04-06T11:40:29.843Z,2.80
2018-04-06T11:42:56.123Z,3.27
2018-04-06T11:45:22.395Z,2.90
2018-04-06T11:47:48.660Z,3.33
2018-04-06T11:50:14.938Z,3.50
2018-04-06T11:52:41.198Z,2.83
2018-04-06T11:55:07.458Z,3.53
2018-04-06T11:57:33.760Z,3.10
2018-04-06T12:00:00.011Z,3.73
2018-04-06T12:02:26.348Z,3.07
2018-04-06T12:04:52.655Z,2.90
2018-04-06T12:07:18.927Z,2.80
2018-04-06T12:09:45.172Z,2.50
2018-04-06T12:12:12.199Z,2.40
2018-04-06T12:14:38.464Z,2.90
2018-04-06T12:17:04.718Z,2.93
2018-04-06T12:19:30.991Z,3.30
2018-04-06T12:21:58.019Z,2.63
2018-04-06T12:24:24.305Z,3.00
2018-04-06T12:26:50.571Z,3.63
2018-04-06T12:29:24.083Z,3.83
2018-04-06T12:31:50.333Z,2.53
2018-04-06T12:34:24.860Z,2.30
2018-04-06T12:36:51.174Z,3.37
2018-04-06T12:39:17.449Z,2.70
2018-04-06T12:41:43.714Z,2.50
2018-04-06T12:44:10.008Z,2.87
2018-04-06T12:46:36.290Z,3.40
2018-04-06T12:49:02.545Z,3.47
2018-04-06T12:51:28.815Z,2.20
2018-04-06T12:53:55.081Z,3.60
2018-04-06T12:56:21.379Z,2.50
2018-04-06T12:58:47.658Z,2.10
2018-04-06T13:01:14.662Z,3.07
2018-04-06T13:03:40.904Z,2.73
2018-04-06T13:06:07.166Z,2.37
2018-04-06T13:08:34.167Z,2.83
2018-04-06T13:11:00.435Z,2.10
2018-04-06T13:13:27.444Z,2.40
2018-04-06T13:15:54.647Z,2.67
2018-04-06T13:18:21.647Z,2.30
2018-04-06T13:20:48.471Z,2.80
2018-04-06T13:23:14.748Z,2.57
2018-04-06T13:25:40.992Z,2.80
2018-04-06T13:28:08.009Z,2.83
2018-04-06T13:30:34.284Z,3.47
2018-04-06T13:33:00.564Z,2.80
2018-04-06T13:35:26.839Z,2.33
2018-04-06T13:37:53.176Z,2.03
2018-04-06T13:40:19.435Z,3.20
2018-04-06T13:42:45.696Z,3.17
2018-04-06T13:45:11.960Z,1.90
2018-04-06T13:47:38.351Z,3.50
2018-04-06T13:50:04.701Z,2.67
2018-04-06T13:52:31.819Z,2.33
2018-04-06T13:54:58.126Z,2.40
2018-04-06T13:57:24.463Z,2.67
2018-04-06T13:59:50.721Z,2.57
2018-04-06T14:02:17.014Z,2.70
2018-04-06T14:04:44.027Z,2.30
2018-04-06T14:07:11.018Z,2.90
2018-04-06T14:09:37.292Z,2.40
2018-04-06T14:12:04.307Z,2.63
2018-04-06T14:14:30.623Z,2.80
2018-04-06T14:16:56.910Z,2.20
2018-04-06T14:19:23.922Z,3.07
2018-04-06T14:21:50.191Z,2.33
2018-04-06T14:24:16.479Z,2.10
2018-04-06T14:26:42.768Z,2.77
2018-04-06T14:29:09.058Z,2.33
2018-04-06T14:31:35.363Z,2.50
2018-04-06T14:34:01.950Z,2.50
2018-04-06T14:36:28.276Z,3.07
2018-04-06T14:38:54.540Z,2.83
2018-04-06T14:41:21.622Z,2.50
2018-04-06T14:43:47.880Z,2.30
2018-04-06T14:46:14.919Z,3.17
2018-04-06T14:48:41.895Z,2.80
2018-04-06T14:51:08.179Z,2.30
2018-04-06T14:53:34.459Z,2.93
2018-04-06T14:56:00.727Z,2.00
2018-04-06T14:58:27.031Z,2.33
2018-04-06T15:00:54.126Z,2.40
2018-04-06T15:03:20.440Z,2.70
2018-04-06T15:05:47.427Z,3.47
2018-04-06T15:08:14.422Z,2.20
2018-04-06T15:10:40.721Z,2.53
2018-04-06T15:13:06.995Z,2.00
2018-04-06T15:15:33.442Z,2.67
2018-04-06T15:17:59.728Z,2.37
2018-04-06T15:20:26.026Z,2.00
2018-04-06T15:22:52.304Z,2.47
2018-04-06T15:25:18.569Z,2.57
2018-04-06T15:27:44.828Z,2.37
2018-04-06T15:30:11.121Z,2.60
2018-04-06T15:32:37.391Z,2.30
2018-04-06T15:35:03.686Z,2.50
2018-04-06T15:37:29.948Z,2.53
2018-04-06T15:39:56.216Z,2.07
2018-04-06T15:42:22.505Z,1.87
2018-04-06T15:44:49.528Z,2.60
2018-04-06T15:47:16.576Z,2.63
2018-04-06T15:49:42.819Z,3.23
2018-04-06T15:52:09.097Z,2.50
2018-04-06T15:54:35.390Z,1.80
2018-04-06T15:57:01.651Z,2.80
2018-04-06T15:59:27.939Z,2.50
2018-04-06T16:01:54.233Z,2.70
2018-04-06T16:04:20.489Z,2.93
2018-04-06T16:06:47.507Z,2.57
2018-04-06T16:12:00.400Z,3.23
2018-04-06T16:14:26.699Z,3.73
2018-04-06T16:16:53.708Z,2.30
2018-04-06T16:19:20.004Z,2.30
2018-04-06T16:21:46.278Z,2.83
2018-04-06T16:24:12.567Z,2.10
2018-04-06T16:26:38.855Z,2.10
2018-04-06T16:29:05.125Z,2.10
2018-04-06T16:31:31.392Z,2.30
2018-04-06T16:33:57.648Z,2.10
2018-04-06T16:36:23.955Z,2.80
2018-04-06T16:38:50.223Z,2.10
2018-04-06T16:41:17.247Z,3.10
2018-04-06T16:43:43.499Z,2.83
2018-04-06T16:46:10.579Z,2.23
2018-04-06T16:48:36.840Z,1.90
2018-04-06T16:51:03.107Z,2.60
2018-04-06T16:53:30.145Z,3.00
2018-04-06T16:55:57.160Z,1.90
2018-04-06T16:58:23.421Z,2.10
2018-04-06T17:00:49.675Z,3.10
2018-04-06T17:03:15.927Z,2.10
2018-04-06T17:05:42.219Z,1.97
2018-04-06T17:08:08.491Z,2.10
2018-04-06T17:10:34.736Z,2.30
2018-04-06T17:13:01.001Z,2.80
2018-04-06T17:15:28.015Z,2.07
2018-04-06T17:17:54.281Z,2.30
2018-04-06T17:20:21.272Z,2.33
2018-04-06T17:22:47.546Z,3.23
2018-04-06T17:25:14.554Z,2.20
2018-04-06T17:27:40.840Z,2.30
2018-04-06T17:30:07.829Z,2.40
2018-04-06T17:32:34.851Z,2.03
2018-04-06T17:35:01.114Z,2.23
2018-04-06T17:37:27.387Z,3.13
2018-04-06T17:39:54.379Z,3.17
2018-04-06T17:42:20.664Z,3.20
2018-04-06T17:44:46.991Z,2.23
2018-04-06T17:47:13.976Z,2.60
2018-04-06T17:49:40.266Z,2.83
2018-04-06T17:52:07.255Z,3.00
2018-04-06T17:54:33.534Z,2.50
2018-04-06T17:56:59.820Z,2.70
2018-04-06T17:59:26.094Z,2.42
2018-04-06T18:01:52.372Z,3.10
2018-04-06T18:04:18.636Z,2.90
2018-04-06T18:06:44.896Z,2.78
2018-04-06T18:09:11.932Z,2.63
2018-04-06T18:11:38.923Z,3.00
2018-04-06T18:14:06.009Z,3.03
2018-04-06T18:16:32.314Z,2.08
2018-04-06T18:18:58.643Z,2.35
2018-04-06T18:21:24.899Z,2.90
2018-04-06T18:23:51.218Z,3.25
2018-04-06T18:26:17.479Z,2.67
2018-04-06T18:28:44.483Z,2.45
2018-04-06T18:31:10.797Z,2.33
2018-04-06T18:33:37.070Z,3.10
2018-04-06T18:36:03.407Z,2.35
2018-04-06T18:38:29.697Z,3.92
2018-04-06T18:40:55.967Z,3.05
2018-04-06T18:43:22.223Z,2.65
2018-04-06T18:45:48.515Z,3.20
2018-04-06T18:48:14.763Z,3.00
2018-04-06T18:50:41.755Z,2.05
2018-04-06T18:53:08.002Z,3.53
2018-04-06T18:55:34.279Z,2.90
2018-04-06T18:58:01.296Z,2.60
2018-04-06T19:00:27.556Z,2.10
2018-04-06T19:02:54.592Z,1.90
2018-04-06T19:05:20.827Z,2.47
2018-04-06T19:07:47.864Z,2.20
2018-04-06T19:10:14.173Z,2.50
2018-04-06T19:12:40.435Z,3.33
2018-04-06T19:15:07.437Z,3.37
2018-04-06T19:17:33.691Z,2.92
2018-04-06T19:19:59.988Z,2.60
2018-04-06T19:22:26.298Z,2.45
2018-04-06T19:24:52.592Z,2.00
2018-04-06T19:27:19.645Z,3.00
2018-04-06T19:29:45.875Z,3.85
2018-04-06T19:32:12.891Z,2.50
2018-04-06T19:34:39.152Z,2.70
2018-04-06T19:37:06.174Z,2.58
2018-04-06T19:39:32.447Z,2.20
2018-04-06T19:41:58.712Z,2.60
2018-04-06T19:44:24.987Z,2.95
2018-04-06T19:46:52.012Z,2.47
2018-04-06T19:49:18.272Z,3.15
2018-04-06T19:51:45.279Z,2.85
2018-04-06T19:54:11.615Z,4.05
2018-04-06T19:56:37.868Z,2.97
2018-04-06T19:59:04.131Z,2.78
2018-04-06T20:01:30.421Z,2.58
2018-04-06T20:03:56.685Z,3.20
2018-04-06T20:06:22.951Z,4.55
2018-04-06T20:08:49.236Z,3.28
2018-04-06T20:11:16.236Z,3.25
2018-04-06T20:13:43.238Z,3.83
2018-04-06T20:16:09.498Z,3.10
2018-04-06T20:18:35.744Z,4.47
2018-04-06T20:21:02.028Z,2.85
2018-04-06T20:23:28.294Z,3.87
2018-04-06T20:25:55.023Z,2.92
2018-04-06T20:28:21.322Z,2.78
2018-04-06T20:30:48.326Z,3.85
2018-04-06T20:33:14.576Z,3.70
2018-04-06T20:35:41.600Z,3.20
2018-04-06T20:38:07.872Z,4.35
2018-04-06T20:40:34.872Z,3.30
2018-04-06T20:43:01.119Z,3.67
2018-04-06T20:45:27.398Z,2.90
2018-04-06T20:47:53.648Z,3.10
2018-04-06T20:50:19.972Z,3.62
2018-04-06T20:52:46.203Z,3.65
2018-04-06T20:55:12.459Z,3.28
2018-04-06T20:57:38.731Z,3.15
2018-04-06T21:00:05.007Z,4.10
2018-04-06T21:02:31.284Z,2.97
2018-04-06T21:04:57.538Z,3.03
2018-04-06T21:07:23.816Z,3.20
2018-04-06T21:09:50.081Z,3.20
2018-04-06T21:12:16.364Z,3.67
2018-04-06T21:14:42.623Z,3.60
2018-04-06T21:17:09.652Z,3.83
2018-04-06T21:19:35.938Z,3.92
2018-04-06T21:22:02.236Z,3.78
2018-04-06T21:24:29.263Z,3.78
2018-04-06T21:26:55.524Z,4.40
2018-04-06T21:29:21.823Z,3.60
2018-04-06T21:31:48.064Z,3.12
2018-04-06T21:34:15.075Z,3.78
2018-04-06T21:36:41.372Z,3.45
2018-04-06T21:39:08.407Z,3.90
2018-04-06T21:41:34.691Z,4.20
2018-04-06T21:44:00.967Z,3.70
2018-04-06T21:46:27.250Z,4.15
2018-04-06T21:48:53.507Z,3.80
2018-04-06T21:51:20.511Z,2.78
2018-04-06T21:53:46.784Z,3.22
2018-04-06T21:56:13.815Z,4.12
2018-04-06T21:58:40.119Z,4.00
2018-04-06T22:01:06.378Z,4.10
2018-04-06T22:03:32.667Z,3.45
2018-04-06T22:05:58.916Z,4.30
2018-04-06T22:08:25.167Z,3.85
2018-04-06T22:10:52.217Z,3.83
2018-04-06T22:13:18.479Z,3.85
2018-04-06T22:15:44.752Z,4.40
2018-04-06T22:18:11.056Z,4.10
2018-04-06T22:20:37.321Z,3.87
2018-04-06T22:23:03.600Z,4.45
2018-04-06T22:25:29.858Z,4.03
2018-04-06T22:27:56.109Z,3.80
2018-04-06T22:30:22.379Z,4.70
2018-04-06T22:32:48.643Z,4.28
2018-04-06T22:35:14.908Z,4.45
2018-04-06T22:37:41.148Z,3.95
2018-04-06T22:40:08.240Z,4.30
2018-04-06T22:42:34.518Z,4.10
2018-04-06T22:45:01.549Z,4.72
2018-04-06T22:47:27.817Z,4.35
2018-04-06T22:49:54.059Z,4.30
2018-04-06T22:52:20.322Z,4.80
2018-04-06T22:54:46.576Z,3.60
2018-04-06T22:57:12.874Z,4.68
2018-04-06T22:59:39.114Z,4.65
2018-04-06T23:02:05.367Z,3.90
2018-04-06T23:04:31.621Z,4.10
2018-04-06T23:06:58.664Z,4.12
2018-04-06T23:09:25.705Z,3.65
2018-04-06T23:11:52.150Z,4.25
2018-04-06T23:14:18.403Z,3.70
2018-04-06T23:16:44.675Z,3.67
2018-04-06T23:19:10.915Z,3.50
2018-04-06T23:21:37.156Z,4.10
2018-04-06T23:24:04.192Z,4.12
2018-04-06T23:26:30.508Z,3.58
2018-04-06T23:28:56.767Z,4.00
2018-04-06T23:31:23.761Z,4.07
2018-04-06T23:33:50.026Z,4.62
2018-04-06T23:36:16.267Z,3.65
2018-04-06T23:38:42.523Z,3.55
2018-04-06T23:41:08.797Z,5.45
2018-04-06T23:43:35.071Z,3.92
2018-04-06T23:46:02.079Z,3.33
2018-04-06T23:48:28.335Z,3.60
2018-04-06T23:50:55.336Z,4.37
2018-04-06T23:53:21.587Z,4.10
2018-04-06T23:55:47.836Z,3.75
2018-04-06T23:58:15.102Z,4.80
